Karla A — TCCR8 — position and weather

sailwx.info

Track history (hours):
 
Tides and Currents Weather Stations Pressure Air Temp Water Temp Dewpoint Dewpoint Depression Visibility Wind Speed Wind Dir Waves Ship Positions

Karla A

Last reported at 2017-Jul-24 18:48 UTC. Time now 2017-Jul-26 20:42 UTC.
Position N 32°51' E 025°42'.

Length 155 m; draft 8.1 m.

Type: Ship (hazmat cat A). MMSI: 271000744.

Date/timePositionNaut miles runAvg speedWind from/ knotsBaromVisibWave heightAir tempDewpointWater temp
2017-Jul-24 18:48N 32°51' E 025°42'412.9
2017-Jul-24 18:30N 32°50' E 025°46'2712.7
2017-Jul-24 16:22N 32°38' E 026°15'246 6.0
2017-Jul-22 23:41N 32°30' E 031°06'212.1
2017-Jul-22 23:30N 32°32' E 031°08'612.1
2017-Jul-22 23:00N 32°35' E 031°14'612.1
2017-Jul-22 22:29N 32°39' E 031°20'612.3
2017-Jul-22 22:00N 32°42' E 031°26'2812.1
2017-Jul-22 19:40N 32°58' E 031°54'211.9
2017-Jul-22 19:30N 32°59' E 031°56'612.1
2017-Jul-22 19:00N 33°03' E 032°02'712.3
2017-Jul-22 18:28N 33°07' E 032°08'912.4
2017-Jul-22 17:46N 33°13' E 032°15'512.5
2017-Jul-22 17:23N 33°17' E 032°19'812.4
2017-Jul-22 16:42N 33°23' E 032°26'212.3
2017-Jul-22 16:30N 33°25' E 032°27'612.1
2017-Jul-22 16:00N 33°29' E 032°32'612.1
2017-Jul-22 15:30N 33°34' E 032°37'712.1
2017-Jul-22 14:54N 33°39' E 032°43'188 3.8
2017-Jul-20 13:35N 35°32' E 035°46'0 0.0
2017-Jul-20 12:46N 35°32' E 035°46'0 0.0
2017-Jul-20 12:16N 35°32' E 035°46'0 0.1
2017-Jul-20 12:00N 35°32' E 035°46'7 5.6
2017-Jul-20 10:48N 35°32' E 035°38'411.7
2017-Jul-20 10:26N 35°32' E 035°32'611.2
2017-Jul-20 09:51N 35°30' E 035°25'411.9
2017-Jul-20 09:30N 35°27' E 035°22'8611.4
2017-Jul-20 01:58N 34°01' E 035°11'19 2.4
2017-Jul-19 18:08N 33°55' E 035°32'0 0.3
2017-Jul-19 17:44N 33°55' E 035°32'2 0.5
2017-Jul-19 12:35N 33°57' E 035°34'0 0.0
2017-Jul-19 12:29N 33°57' E 035°34'20 1.0
2017-Jul-18 16:08N 33°55' E 035°10'211.7
2017-Jul-18 16:00N 33°56' E 035°08'612.3
2017-Jul-18 15:30N 33°57' E 035°01'612.6
2017-Jul-18 15:00N 33°58' E 034°53'1312.5
2017-Jul-18 14:00N 33°60' E 034°38'612.4
2017-Jul-18 13:30N 34°01' E 034°31'712.4
2017-Jul-18 12:55N 34°02' E 034°22'512.4
2017-Jul-18 12:30N 34°03' E 034°16'612.2
2017-Jul-18 12:00N 34°04' E 034°09'612.3
2017-Jul-18 11:30N 34°05' E 034°02'612.3
2017-Jul-18 11:00N 34°06' E 033°54'612.5
2017-Jul-18 10:30N 34°07' E 033°47'1013.5
2017-Jul-18 09:45N 34°08' E 033°35'1413.6
2017-Jul-18 08:44N 34°10' E 033°18'413.3
2017-Jul-18 08:29N 34°11' E 033°14'613.3
2017-Jul-18 08:00N 34°12' E 033°07'813.3
2017-Jul-18 07:26N 34°13' E 032°58'913.3
2017-Jul-18 06:45N 34°15' E 032°47'313.1
2017-Jul-18 06:30N 34°15' E 032°43'913.1
2017-Jul-18 05:50N 34°17' E 032°33'613.1
2017-Jul-18 05:21N 34°18' E 032°25'613.1
2017-Jul-18 04:54N 34°19' E 032°18'1013.1
2017-Jul-18 04:08N 34°20' E 032°06'213.2
2017-Jul-18 04:00N 34°21' E 032°04'713.3
2017-Jul-18 03:30N 34°22' E 031°56'713.1
2017-Jul-18 03:00N 34°23' E 031°48'712.9
2017-Jul-18 02:28N 34°24' E 031°40'612.8
2017-Jul-18 02:00N 34°25' E 031°33'612.7
2017-Jul-18 01:30N 34°26' E 031°25'612.8
2017-Jul-18 01:00N 34°27' E 031°18'2413.3
2017-Jul-17 23:12N 34°31' E 030°49'313.5
2017-Jul-17 23:00N 34°31' E 030°46'713.7
2017-Jul-17 22:30N 34°34' E 030°38'713.7
2017-Jul-17 22:00N 34°37' E 030°31'713.6
2017-Jul-17 21:30N 34°40' E 030°23'713.6
2017-Jul-17 21:00N 34°43' E 030°16'913.5
2017-Jul-17 20:18N 34°48' E 030°06'413.4
2017-Jul-17 20:00N 34°49' E 030°01'713.2
2017-Jul-17 19:29N 34°52' E 029°54'613.3
2017-Jul-17 19:00N 34°55' E 029°47'813.3
2017-Jul-17 18:22N 34°59' E 029°38'513.2
2017-Jul-17 18:00N 35°01' E 029°32'713.3
2017-Jul-17 17:30N 35°04' E 029°25'2113.3
2017-Jul-17 15:57N 35°13' E 029°02'19913.4
2017-Jul-17 01:08N 37°23' E 025°55'213.4
2017-Jul-17 01:00N 37°24' E 025°54'713.2
2017-Jul-17 00:30N 37°30' E 025°50'713.9
2017-Jul-17 00:00N 37°37' E 025°50'  
Track history (hours):
 
Tides and Currents Weather Stations Pressure Air Temp Water Temp Dewpoint Dewpoint Depression Visibility Wind Speed Wind Dir Waves Ship Positions

Karla A

Last reported at 2017-Jul-24 18:48 UTC. Time now 2017-Jul-26 20:42 UTC.
Position N 32°51' E 025°42'.

Length 155 m; draft 8.1 m.

Type: Ship (hazmat cat A). MMSI: 271000744.

Date/timePositionNaut miles runAvg speedWind from/ knotsBaromVisibWave heightAir tempDewpointWater temp
2017-Jul-24 18:48N 32°51' E 025°42'412.9
2017-Jul-24 18:30N 32°50' E 025°46'2712.7
2017-Jul-24 16:22N 32°38' E 026°15'246 6.0
2017-Jul-22 23:41N 32°30' E 031°06'212.1
2017-Jul-22 23:30N 32°32' E 031°08'612.1
2017-Jul-22 23:00N 32°35' E 031°14'612.1
2017-Jul-22 22:29N 32°39' E 031°20'612.3
2017-Jul-22 22:00N 32°42' E 031°26'2812.1
2017-Jul-22 19:40N 32°58' E 031°54'211.9
2017-Jul-22 19:30N 32°59' E 031°56'612.1
2017-Jul-22 19:00N 33°03' E 032°02'712.3
2017-Jul-22 18:28N 33°07' E 032°08'912.4
2017-Jul-22 17:46N 33°13' E 032°15'512.5
2017-Jul-22 17:23N 33°17' E 032°19'812.4
2017-Jul-22 16:42N 33°23' E 032°26'212.3
2017-Jul-22 16:30N 33°25' E 032°27'612.1
2017-Jul-22 16:00N 33°29' E 032°32'612.1
2017-Jul-22 15:30N 33°34' E 032°37'712.1
2017-Jul-22 14:54N 33°39' E 032°43'188 3.8
2017-Jul-20 13:35N 35°32' E 035°46'0 0.0
2017-Jul-20 12:46N 35°32' E 035°46'0 0.0
2017-Jul-20 12:16N 35°32' E 035°46'0 0.1
2017-Jul-20 12:00N 35°32' E 035°46'7 5.6
2017-Jul-20 10:48N 35°32' E 035°38'411.7
2017-Jul-20 10:26N 35°32' E 035°32'611.2
2017-Jul-20 09:51N 35°30' E 035°25'411.9
2017-Jul-20 09:30N 35°27' E 035°22'8611.4
2017-Jul-20 01:58N 34°01' E 035°11'19 2.4
2017-Jul-19 18:08N 33°55' E 035°32'0 0.3
2017-Jul-19 17:44N 33°55' E 035°32'2 0.5
2017-Jul-19 12:35N 33°57' E 035°34'0 0.0
2017-Jul-19 12:29N 33°57' E 035°34'20 1.0
2017-Jul-18 16:08N 33°55' E 035°10'211.7
2017-Jul-18 16:00N 33°56' E 035°08'612.3
2017-Jul-18 15:30N 33°57' E 035°01'612.6
2017-Jul-18 15:00N 33°58' E 034°53'1312.5
2017-Jul-18 14:00N 33°60' E 034°38'612.4
2017-Jul-18 13:30N 34°01' E 034°31'712.4
2017-Jul-18 12:55N 34°02' E 034°22'512.4
2017-Jul-18 12:30N 34°03' E 034°16'612.2
2017-Jul-18 12:00N 34°04' E 034°09'612.3
2017-Jul-18 11:30N 34°05' E 034°02'612.3
2017-Jul-18 11:00N 34°06' E 033°54'612.5
2017-Jul-18 10:30N 34°07' E 033°47'1013.5
2017-Jul-18 09:45N 34°08' E 033°35'1413.6
2017-Jul-18 08:44N 34°10' E 033°18'413.3
2017-Jul-18 08:29N 34°11' E 033°14'613.3
2017-Jul-18 08:00N 34°12' E 033°07'813.3
2017-Jul-18 07:26N 34°13' E 032°58'913.3
2017-Jul-18 06:45N 34°15' E 032°47'313.1
2017-Jul-18 06:30N 34°15' E 032°43'913.1
2017-Jul-18 05:50N 34°17' E 032°33'613.1
2017-Jul-18 05:21N 34°18' E 032°25'613.1
2017-Jul-18 04:54N 34°19' E 032°18'1013.1
2017-Jul-18 04:08N 34°20' E 032°06'213.2
2017-Jul-18 04:00N 34°21' E 032°04'713.3
2017-Jul-18 03:30N 34°22' E 031°56'713.1
2017-Jul-18 03:00N 34°23' E 031°48'712.9
2017-Jul-18 02:28N 34°24' E 031°40'612.8
2017-Jul-18 02:00N 34°25' E 031°33'612.7
2017-Jul-18 01:30N 34°26' E 031°25'612.8
2017-Jul-18 01:00N 34°27' E 031°18'2413.3
2017-Jul-17 23:12N 34°31' E 030°49'313.5
2017-Jul-17 23:00N 34°31' E 030°46'713.7
2017-Jul-17 22:30N 34°34' E 030°38'713.7
2017-Jul-17 22:00N 34°37' E 030°31'713.6
2017-Jul-17 21:30N 34°40' E 030°23'713.6
2017-Jul-17 21:00N 34°43' E 030°16'913.5
2017-Jul-17 20:18N 34°48' E 030°06'413.4
2017-Jul-17 20:00N 34°49' E 030°01'713.2
2017-Jul-17 19:29N 34°52' E 029°54'613.3
2017-Jul-17 19:00N 34°55' E 029°47'813.3
2017-Jul-17 18:22N 34°59' E 029°38'513.2
2017-Jul-17 18:00N 35°01' E 029°32'713.3
2017-Jul-17 17:30N 35°04' E 029°25'2113.3
2017-Jul-17 15:57N 35°13' E 029°02'19913.4
2017-Jul-17 01:08N 37°23' E 025°55'213.4
2017-Jul-17 01:00N 37°24' E 025°54'713.2
2017-Jul-17 00:30N 37°30' E 025°50'713.9
2017-Jul-17 00:00N 37°37' E 025°50'  

Dump ship's entire track history